Time;durP1;ratioP1;P1;durP2;ratioP2;P2;SDS_P1;SDS_P2;PMS_P1;PMS_P2;Temp;Humidity;BMP_temperature;BMP_pressure;BME280_temperature;BME280_humidity;BME280_pressure;Samples;Min_cycle;Max_cycle;Signal;HPM_P1;HPM_P2
2022/10/30 00:01:07;;;;;;;3.17;2.15;;;;;;;18.32;54.92;94034.13;5025418;28;20415;-87
2022/10/30 00:03:32;;;;;;;2.95;2.00;;;;;;;18.32;54.66;94023.19;5027546;28;20040;-85
2022/10/30 00:05:58;;;;;;;2.60;1.70;;;;;;;18.32;54.81;94038.88;5009049;28;20045;-86
2022/10/30 00:08:26;;;;;;;3.25;1.90;;;;;;;18.33;54.79;94029.41;4997834;28;20329;-86
2022/10/30 00:10:51;;;;;;;2.40;1.90;;;;;;;18.32;54.87;94019.72;5022372;28;20041;-86
2022/10/30 00:13:17;;;;;;;2.92;2.15;;;;;;;18.30;54.92;94033.88;4989616;28;20143;-87
2022/10/30 00:15:50;;;;;;;2.42;1.70;;;;;;;18.32;54.99;94022.44;4989933;28;20128;-85
2022/10/30 00:18:16;;;;;;;2.10;1.80;;;;;;;18.29;55.12;94023.44;5009795;28;20038;-86
2022/10/30 00:20:41;;;;;;;4.10;1.75;;;;;;;18.33;54.59;94027.41;4996065;28;20507;-85
2022/10/30 00:23:07;;;;;;;2.80;1.73;;;;;;;18.32;54.70;94027.91;5026837;28;20107;-86
2022/10/30 00:25:34;;;;;;;2.47;1.90;;;;;;;18.31;54.59;94029.91;5042084;28;20656;-86
2022/10/30 00:27:59;;;;;;;4.32;1.85;;;;;;;18.30;55.03;94012.00;5025547;28;20099;-86
2022/10/30 00:30:24;;;;;;;2.03;1.63;;;;;;;18.31;55.04;94016.22;5041709;28;20045;-87
2022/10/30 00:32:50;;;;;;;2.58;1.90;;;;;;;18.31;55.01;93999.78;5025201;28;20230;-85
2022/10/30 00:35:15;;;;;;;3.30;1.98;;;;;;;18.34;54.84;94011.75;5032224;28;20033;-87
2022/10/30 00:37:41;;;;;;;3.45;2.05;;;;;;;18.32;54.63;94009.50;5001406;28;20117;-86
2022/10/30 00:40:08;;;;;;;2.72;1.52;;;;;;;18.30;54.78;94006.50;5021907;28;20056;-85
2022/10/30 00:42:33;;;;;;;1.73;1.40;;;;;;;18.31;54.98;94010.00;5007728;28;20045;-86
2022/10/30 00:44:59;;;;;;;3.08;1.88;;;;;;;18.30;54.50;94003.78;5011398;28;20346;-85
2022/10/30 00:47:27;;;;;;;2.28;1.60;;;;;;;18.30;54.57;94005.75;5005241;28;20815;-86
2022/10/30 00:50:14;;;;;;;2.45;1.65;;;;;;;18.28;54.70;94013.72;5022416;28;20041;-87
2022/10/30 00:52:41;;;;;;;2.00;1.33;;;;;;;18.30;55.07;94005.75;5000765;28;20116;-86
2022/10/30 00:55:11;;;;;;;3.20;1.60;;;;;;;18.30;54.71;94003.78;4974554;28;20864;-86
2022/10/30 00:57:36;;;;;;;2.80;1.90;;;;;;;18.30;54.82;93998.31;5024647;28;20041;-86
2022/10/30 01:00:03;;;;;;;1.92;1.65;;;;;;;18.31;54.99;94004.53;5025520;28;20068;-86
2022/10/30 01:02:28;;;;;;;3.70;1.95;;;;;;;18.29;54.73;93990.59;5041259;28;20099;-86
2022/10/30 01:04:54;;;;;;;1.83;1.40;;;;;;;18.30;54.64;93997.56;5025443;28;20403;-86
2022/10/30 01:07:20;;;;;;;2.05;1.45;;;;;;;18.30;54.34;93992.09;5041324;28;20042;-86
2022/10/30 01:09:45;;;;;;;2.80;1.70;;;;;;;18.29;54.94;93999.53;5024385;28;20049;-85
2022/10/30 01:12:11;;;;;;;2.85;1.77;;;;;;;18.28;54.91;93992.56;5024635;28;20053;-85
2022/10/30 01:14:38;;;;;;;2.33;1.70;;;;;;;18.29;54.59;93999.53;5025285;28;20368;-86
2022/10/30 01:17:11;;;;;;;1.80;1.50;;;;;;;18.30;54.76;93998.31;5021418;28;20042;-86
2022/10/30 01:20:01;;;;;;;2.00;1.67;;;;;;;18.30;54.60;93992.09;5036111;28;20076;-86
2022/10/30 01:22:52;;;;;;;2.60;1.98;;;;;;;18.29;54.70;93998.78;5006025;28;20038;-86
2022/10/30 01:25:40;;;;;;;2.65;1.42;;;;;;;18.28;54.77;93989.84;4988781;28;20045;-86
2022/10/30 01:28:31;;;;;;;3.28;1.70;;;;;;;18.29;54.76;93988.59;5013155;28;20048;-86
2022/10/30 01:30:59;;;;;;;2.38;1.40;;;;;;;18.29;54.77;94001.53;5041688;28;20046;-86
2022/10/30 01:33:36;;;;;;;4.72;1.58;;;;;;;18.28;54.71;93987.09;5022246;28;20507;-86
2022/10/30 01:36:21;;;;;;;3.53;1.92;;;;;;;18.30;54.55;93990.09;5036812;28;20132;-86
2022/10/30 01:38:55;;;;;;;2.25;1.20;;;;;;;18.29;54.93;93987.84;5041535;28;20065;-86
2022/10/30 01:41:21;;;;;;;3.00;1.42;;;;;;;18.29;54.62;93990.59;5006816;28;20041;-85
2022/10/30 01:43:47;;;;;;;2.15;1.13;;;;;;;18.28;54.68;93983.63;4972460;28;20042;-86
2022/10/30 01:46:15;;;;;;;1.95;1.30;;;;;;;18.27;54.64;93988.34;4990445;28;20111;-86
2022/10/30 01:48:54;;;;;;;1.48;1.23;;;;;;;18.26;54.62;93984.09;5010607;28;20037;-85
2022/10/30 01:51:25;;;;;;;1.75;1.60;;;;;;;18.29;54.44;93979.63;5008783;28;20046;-86
2022/10/30 01:54:18;;;;;;;2.30;1.17;;;;;;;18.28;54.69;93978.16;5013198;28;20133;-86
2022/10/30 01:56:54;;;;;;;1.75;1.48;;;;;;;18.27;54.59;93971.19;5013178;28;20046;-87
2022/10/30 01:59:28;;;;;;;2.22;1.27;;;;;;;18.28;54.49;93976.16;5027740;28;20076;-85
2022/10/30 02:01:53;;;;;;;1.63;1.25;;;;;;;18.27;54.67;93969.19;5028320;28;20103;-86
2022/10/30 02:04:18;;;;;;;1.67;1.20;;;;;;;18.27;54.64;93971.19;5044544;28;20030;-86
2022/10/30 02:06:44;;;;;;;2.55;1.60;;;;;;;18.28;54.49;93967.19;5028043;28;20038;-86
2022/10/30 02:09:09;;;;;;;1.77;1.30;;;;;;;18.30;54.70;93964.72;5026709;28;20399;-86
2022/10/30 02:11:35;;;;;;;2.58;1.38;;;;;;;18.28;54.55;93962.47;5044500;28;20053;-86
2022/10/30 02:14:03;;;;;;;1.70;1.35;;;;;;;18.27;54.94;93966.44;5044856;28;20041;-86
2022/10/30 02:16:29;;;;;;;1.65;1.30;;;;;;;18.27;54.71;93960.22;5039822;28;20065;-86
2022/10/30 02:18:54;;;;;;;1.70;1.40;;;;;;;18.27;54.49;93971.19;5021307;28;20407;-86
2022/10/30 02:21:20;;;;;;;1.75;1.17;;;;;;;18.28;54.56;93959.00;5026776;28;20041;-86
2022/10/30 02:23:45;;;;;;;1.17;1.05;;;;;;;18.27;54.52;93960.97;5011596;28;20554;-86
2022/10/30 02:26:11;;;;;;;3.28;1.25;;;;;;;18.27;54.62;93960.97;5011272;28;20124;-86
2022/10/30 02:28:36;;;;;;;1.58;1.30;;;;;;;18.27;54.69;93958.25;5027926;28;20042;-86
2022/10/30 02:31:02;;;;;;;1.92;1.38;;;;;;;18.25;54.65;93962.72;5027404;28;20057;-87
2022/10/30 02:33:27;;;;;;;1.58;1.20;;;;;;;18.29;54.57;93960.47;5042453;28;20486;-87
2022/10/30 02:35:53;;;;;;;1.40;1.13;;;;;;;18.28;54.64;93961.72;5016124;28;20426;-85
2022/10/30 02:38:18;;;;;;;1.35;1.20;;;;;;;18.26;54.69;93956.75;4991072;28;20435;-86
2022/10/30 02:40:44;;;;;;;3.25;1.20;;;;;;;18.26;54.85;93951.28;4989576;28;20494;-86
2022/10/30 02:43:09;;;;;;;2.95;1.20;;;;;;;18.25;54.59;93952.50;5023810;28;20038;-86
2022/10/30 02:45:35;;;;;;;1.77;0.95;;;;;;;18.25;54.60;93946.28;4992574;28;20045;-85
2022/10/30 02:48:00;;;;;;;1.85;1.40;;;;;;;18.26;54.63;93953.25;5007735;28;20104;-86
2022/10/30 02:50:25;;;;;;;2.00;1.42;;;;;;;18.26;54.61;93950.53;5006956;28;20038;-86
2022/10/30 02:52:51;;;;;;;2.03;1.10;;;;;;;18.25;54.71;93954.50;5007992;28;20061;-86
2022/10/30 02:55:16;;;;;;;1.27;0.93;;;;;;;18.26;54.81;93942.31;4998293;28;20412;-86
2022/10/30 02:57:42;;;;;;;3.17;1.40;;;;;;;18.26;54.94;93951.28;5004151;28;20042;-87
2022/10/30 03:00:08;;;;;;;1.90;1.20;;;;;;;18.28;54.45;93948.03;5023010;28;20500;-86
2022/10/30 03:02:33;;;;;;;1.13;1.02;;;;;;;18.26;54.81;93945.06;4991384;28;20503;-86
2022/10/30 03:04:58;;;;;;;3.05;0.93;;;;;;;18.26;54.49;93947.78;5007604;28;20041;-85
2022/10/30 03:07:24;;;;;;;2.38;1.10;;;;;;;18.25;54.82;93944.31;4974788;28;20038;-86
2022/10/30 03:09:50;;;;;;;1.38;1.27;;;;;;;18.25;54.67;93949.03;4984566;28;20034;-87
2022/10/30 03:12:16;;;;;;;2.45;1.05;;;;;;;18.26;54.56;93937.59;5021856;28;20041;-86
2022/10/30 03:14:41;;;;;;;2.60;1.40;;;;;;;18.25;54.72;93935.34;5027281;28;20044;-86
2022/10/30 03:17:07;;;;;;;1.00;0.90;;;;;;;18.25;54.62;93938.09;5023561;28;20040;-86
2022/10/30 03:19:32;;;;;;;1.40;1.10;;;;;;;18.25;54.57;93930.63;5005097;28;20053;-86
2022/10/30 03:21:58;;;;;;;1.40;0.93;;;;;;;18.27;54.72;93938.34;5020147;28;20453;-86
2022/10/30 03:24:23;;;;;;;1.20;1.00;;;;;;;18.24;54.38;93931.13;5026506;28;20438;-86
2022/10/30 03:26:48;;;;;;;1.50;1.00;;;;;;;18.26;54.73;93942.31;5027321;28;20068;-86
2022/10/30 03:29:14;;;;;;;1.20;1.10;;;;;;;18.25;54.60;93933.34;5026017;28;20068;-86
2022/10/30 03:31:39;;;;;;;1.58;1.02;;;;;;;18.25;54.60;93938.81;5026362;28;20411;-86
2022/10/30 03:34:05;;;;;;;1.98;1.45;;;;;;;18.25;54.73;93933.34;5040463;28;20037;-85
2022/10/30 03:36:30;;;;;;;3.05;1.00;;;;;;;18.25;54.19;93940.81;5007155;28;20072;-86
2022/10/30 03:38:56;;;;;;;1.65;1.02;;;;;;;18.25;54.74;93935.34;5006741;28;20046;-86
2022/10/30 03:41:22;;;;;;;1.20;1.10;;;;;;;18.23;54.30;93935.84;5011418;28;20038;-86
2022/10/30 03:43:47;;;;;;;1.80;1.13;;;;;;;18.24;54.29;93940.06;5006971;28;20061;-86
2022/10/30 03:46:12;;;;;;;1.23;0.95;;;;;;;18.26;54.64;93936.84;4991341;28;20045;-86
2022/10/30 03:48:38;;;;;;;1.63;0.98;;;;;;;18.25;54.84;93936.09;5010168;28;20045;-87
2022/10/30 03:51:03;;;;;;;1.55;1.20;;;;;;;18.24;54.47;93936.59;4989528;28;20049;-86
2022/10/30 03:53:30;;;;;;;1.15;0.93;;;;;;;18.24;54.90;93947.53;5006506;28;20067;-85
2022/10/30 03:56:00;;;;;;;3.03;1.00;;;;;;;18.25;54.40;93935.34;5014191;28;20052;-86
2022/10/30 03:58:26;;;;;;;1.15;0.90;;;;;;;18.24;54.42;93945.53;5021999;28;20164;-85
2022/10/30 04:00:52;;;;;;;1.48;1.08;;;;;;;18.24;54.65;93937.34;5026109;28;20041;-86
2022/10/30 04:03:17;;;;;;;1.85;1.20;;;;;;;18.24;54.12;93942.81;5042227;28;20041;-87
2022/10/30 04:05:42;;;;;;;1.13;1.02;;;;;;;18.23;54.93;93941.31;5025891;28;20068;-86
2022/10/30 04:08:10;;;;;;;2.10;1.10;;;;;;;18.23;54.51;93935.09;5025869;28;20029;-86
2022/10/30 04:10:36;;;;;;;1.05;0.90;;;;;;;18.23;54.80;93935.09;5021248;28;20045;-85
2022/10/30 04:13:03;;;;;;;1.17;0.90;;;;;;;18.22;54.52;93931.59;5023029;28;20048;-86
2022/10/30 04:15:28;;;;;;;2.40;1.30;;;;;;;18.23;54.50;93937.81;5008033;28;20407;-85
2022/10/30 04:17:54;;;;;;;1.08;0.90;;;;;;;18.24;54.42;93931.88;5022010;28;20034;-86
2022/10/30 04:20:20;;;;;;;1.00;0.90;;;;;;;18.24;54.61;93933.84;4989075;28;20034;-87
2022/10/30 04:22:45;;;;;;;1.30;0.90;;;;;;;18.24;54.27;93929.13;5002309;28;20530;-86
2022/10/30 04:25:11;;;;;;;2.30;0.85;;;;;;;18.23;54.40;93930.38;5021805;28;20034;-86
2022/10/30 04:27:40;;;;;;;2.53;1.33;;;;;;;18.24;54.53;93931.13;5022653;28;20034;-85
2022/10/30 04:30:06;;;;;;;2.15;0.88;;;;;;;18.23;54.58;93937.81;4989057;28;20053;-86
2022/10/30 04:32:31;;;;;;;1.92;1.30;;;;;;;18.24;54.33;93929.13;4990013;28;20136;-86
2022/10/30 04:34:57;;;;;;;1.35;1.05;;;;;;;18.22;54.81;93926.13;5012826;28;20045;-85
2022/10/30 04:37:22;;;;;;;1.20;1.00;;;;;;;18.24;54.72;93933.84;5005944;28;20045;-86
2022/10/30 04:39:48;;;;;;;1.00;0.90;;;;;;;18.24;54.27;93929.13;5006173;28;20042;-86
2022/10/30 04:42:13;;;;;;;1.63;1.00;;;;;;;18.24;54.57;93926.38;5004384;28;20033;-86
2022/10/30 04:44:39;;;;;;;1.25;0.98;;;;;;;18.23;54.27;93935.09;4991257;28;20038;-85
2022/10/30 04:47:04;;;;;;;2.65;1.15;;;;;;;18.23;54.55;93937.81;5010688;28;20038;-86
2022/10/30 04:49:29;;;;;;;0.75;0.75;;;;;;;18.22;54.36;93933.59;4989409;28;20042;-86
2022/10/30 04:51:55;;;;;;;1.33;0.80;;;;;;;18.23;54.41;93930.38;5005399;28;20096;-86
2022/10/30 04:54:21;;;;;;;0.73;0.70;;;;;;;18.23;54.26;93929.63;5041109;28;20045;-86
2022/10/30 04:56:46;;;;;;;6.85;1.23;;;;;;;18.23;54.33;93932.34;5025581;28;20891;-86
2022/10/30 04:59:12;;;;;;;1.17;0.80;;;;;;;18.21;54.33;93927.38;5041408;28;20120;-86
2022/10/30 05:01:37;;;;;;;0.98;0.88;;;;;;;18.20;54.35;93923.16;5025499;28;20050;-86
2022/10/30 05:04:02;;;;;;;1.42;0.80;;;;;;;18.20;54.34;93925.88;5005996;28;20053;-86
2022/10/30 05:06:31;;;;;;;1.05;0.80;;;;;;;18.21;54.56;93929.38;5013021;28;20517;-86
2022/10/30 05:08:57;;;;;;;1.67;1.20;;;;;;;18.20;54.00;93925.88;5024962;28;20089;-86
2022/10/30 05:11:22;;;;;;;1.50;0.80;;;;;;;18.22;54.38;93925.38;5024821;28;20523;-86
2022/10/30 05:13:47;;;;;;;1.13;0.75;;;;;;;18.23;54.41;93933.09;5025382;28;20477;-86
2022/10/30 05:16:13;;;;;;;1.33;1.10;;;;;;;18.20;54.35;93919.66;5024344;28;20029;-85
2022/10/30 05:18:38;;;;;;;1.10;0.75;;;;;;;18.21;54.59;93932.84;5009270;28;20491;-86
2022/10/30 05:21:04;;;;;;;1.50;1.00;;;;;;;18.22;54.18;93925.38;5022878;28;20033;-86
2022/10/30 05:23:29;;;;;;;1.27;0.88;;;;;;;18.20;54.40;93920.41;5028907;28;20083;-87
2022/10/30 05:25:55;;;;;;;1.30;0.85;;;;;;;18.19;54.44;93923.66;5028795;28;20561;-86
2022/10/30 05:28:20;;;;;;;1.25;0.80;;;;;;;18.20;54.28;93922.41;5012341;28;20050;-86
2022/10/30 05:30:45;;;;;;;1.75;0.98;;;;;;;18.20;54.21;93917.69;5045470;28;20108;-86
2022/10/30 05:33:11;;;;;;;1.15;0.90;;;;;;;18.20;54.21;93912.19;5026637;28;20045;-85
2022/10/30 05:35:36;;;;;;;1.27;0.80;;;;;;;18.18;54.09;93911.97;5022518;28;20426;-87
2022/10/30 05:38:03;;;;;;;1.42;0.90;;;;;;;18.21;54.35;93918.41;5028611;28;20044;-87
2022/10/30 05:40:28;;;;;;;2.40;0.90;;;;;;;18.20;54.33;93923.16;5011975;28;20410;-86
2022/10/30 05:42:54;;;;;;;1.65;0.88;;;;;;;18.20;54.35;93923.16;5022923;28;20038;-87
2022/10/30 05:45:19;;;;;;;1.38;0.60;;;;;;;18.17;54.21;93921.44;5024731;28;20053;-85
2022/10/30 05:47:59;;;;;;;1.40;0.85;;;;;;;18.19;54.35;93918.91;5005613;28;20041;-87
2022/10/30 05:50:25;;;;;;;1.02;0.93;;;;;;;18.21;54.52;93921.91;4992719;28;20061;-86
2022/10/30 05:52:56;;;;;;;1.75;0.82;;;;;;;18.19;54.57;93918.91;5008879;28;20667;-87
2022/10/30 05:55:21;;;;;;;1.38;1.10;;;;;;;18.19;54.50;93924.38;5025150;28;20092;-85
2022/10/30 05:57:47;;;;;;;1.55;0.82;;;;;;;18.18;54.42;93920.19;5027881;28;20046;-86
2022/10/30 06:00:13;;;;;;;1.00;0.90;;;;;;;18.19;54.15;93923.66;5028111;28;20116;-85
2022/10/30 06:02:38;;;;;;;2.30;1.48;;;;;;;18.19;54.44;93921.66;5027963;28;20041;-85
2022/10/30 06:05:04;;;;;;;1.02;0.77;;;;;;;18.20;54.32;93927.88;5012229;28;20041;-86
2022/10/30 06:07:29;;;;;;;1.42;1.02;;;;;;;18.20;54.48;93922.41;5008426;28;20235;-85
2022/10/30 06:09:54;;;;;;;2.08;0.98;;;;;;;18.18;54.22;93920.19;5010532;28;20061;-86
2022/10/30 06:12:20;;;;;;;0.85;0.70;;;;;;;18.21;54.53;93923.91;4991983;28;20034;-87
2022/10/30 06:14:45;;;;;;;1.30;0.93;;;;;;;18.21;54.42;93923.91;5000742;28;20045;-87
2022/10/30 06:17:11;;;;;;;1.00;0.88;;;;;;;18.20;54.88;93923.16;5016876;28;20100;-86
2022/10/30 06:19:36;;;;;;;0.90;0.73;;;;;;;18.21;54.60;93921.16;5026363;28;20038;-86
2022/10/30 06:22:01;;;;;;;0.93;0.73;;;;;;;18.21;54.49;93921.91;4996146;28;20046;-86
2022/10/30 06:24:27;;;;;;;0.82;0.82;;;;;;;18.20;54.49;93931.34;4998332;28;20049;-86
2022/10/30 06:26:52;;;;;;;1.08;0.80;;;;;;;18.22;54.32;93926.13;5044813;28;20046;-85
2022/10/30 06:29:17;;;;;;;0.60;0.60;;;;;;;18.22;54.69;93922.66;5027242;28;20135;-85
2022/10/30 06:31:43;;;;;;;2.08;0.88;;;;;;;18.22;54.44;93926.13;5043355;28;20427;-86
2022/10/30 06:34:08;;;;;;;1.85;0.82;;;;;;;18.21;54.23;93926.63;5038085;28;20046;-86
2022/10/30 06:36:34;;;;;;;2.08;1.15;;;;;;;18.23;54.32;93929.63;5011313;28;20049;-86
2022/10/30 06:38:59;;;;;;;1.45;1.00;;;;;;;18.23;54.66;93927.63;5011684;28;20034;-86
2022/10/30 06:41:24;;;;;;;0.70;0.70;;;;;;;18.22;54.32;93930.88;5017793;28;20038;-85
2022/10/30 06:43:50;;;;;;;0.50;0.50;;;;;;;18.22;54.37;93931.59;4991394;28;20396;-86
2022/10/30 06:46:15;;;;;;;0.98;0.80;;;;;;;18.24;54.20;93936.59;5012936;28;20500;-86
2022/10/30 06:48:41;;;;;;;1.02;0.75;;;;;;;18.26;54.43;93928.63;4975723;28;20046;-86
2022/10/30 06:51:06;;;;;;;0.82;0.70;;;;;;;18.26;54.37;93939.56;4991118;28;20108;-86
2022/10/30 06:53:31;;;;;;;0.77;0.70;;;;;;;18.26;54.56;93948.53;5007815;28;20500;-86
2022/10/30 06:55:58;;;;;;;0.88;0.70;;;;;;;18.27;54.21;93941.06;5012843;28;20037;-86
2022/10/30 06:58:23;;;;;;;1.65;0.90;;;;;;;18.26;54.15;93942.31;5020842;28;20034;-86
2022/10/30 07:00:49;;;;;;;1.88;0.80;;;;;;;18.27;54.74;93935.59;5007982;28;20486;-86
2022/10/30 07:03:14;;;;;;;1.20;0.80;;;;;;;18.29;54.61;93938.59;4990940;28;20532;-85
2022/10/30 07:05:40;;;;;;;0.98;0.82;;;;;;;18.29;54.23;93947.53;5001121;28;20038;-86
2022/10/30 07:08:05;;;;;;;1.13;0.70;;;;;;;18.30;54.33;93942.81;5043016;28;20045;-87
2022/10/30 07:10:31;;;;;;;1.02;0.77;;;;;;;18.30;54.21;93945.56;5027157;28;20380;-85
2022/10/30 07:12:57;;;;;;;1.38;0.70;;;;;;;18.29;54.53;93947.53;5027157;28;20057;-85
2022/10/30 07:15:23;;;;;;;1.08;0.80;;;;;;;18.29;54.66;93953.00;5021030;28;20534;-86
2022/10/30 07:17:53;;;;;;;1.30;0.70;;;;;;;18.31;54.40;93944.31;4995942;28;20053;-86
2022/10/30 07:20:19;;;;;;;0.90;0.70;;;;;;;18.33;54.50;93948.06;5007188;28;20462;-86
2022/10/30 07:22:44;;;;;;;2.00;0.80;;;;;;;18.32;54.19;93954.75;5000781;28;20045;-87
2022/10/30 07:25:10;;;;;;;0.55;0.50;;;;;;;18.32;54.12;93954.00;5026592;28;20049;-86
2022/10/30 07:27:47;;;;;;;0.60;0.60;;;;;;;18.33;54.23;93953.53;5043238;28;20045;-86
2022/10/30 07:30:13;;;;;;;1.75;0.57;;;;;;;18.33;54.31;93956.25;5026541;28;20123;-86
2022/10/30 07:32:38;;;;;;;0.93;0.60;;;;;;;18.36;54.49;93954.53;5008953;28;20077;-87
2022/10/30 07:35:05;;;;;;;1.15;0.80;;;;;;;18.36;54.26;93952.53;4980528;28;20415;-86
2022/10/30 07:37:30;;;;;;;0.77;0.60;;;;;;;18.36;54.50;93949.78;4995084;28;20054;-85
2022/10/30 07:39:58;;;;;;;1.02;0.75;;;;;;;18.38;54.44;93954.78;5007124;28;20092;-86
2022/10/30 07:42:24;;;;;;;1.48;0.80;;;;;;;18.38;54.40;93949.31;5019128;28;20045;-86
2022/10/30 07:44:49;;;;;;;0.80;0.63;;;;;;;18.38;54.22;93947.31;5006619;28;20042;-86
2022/10/30 07:47:15;;;;;;;0.98;0.50;;;;;;;18.39;54.35;93937.09;5021116;28;20036;-86
2022/10/30 07:49:40;;;;;;;1.85;0.70;;;;;;;18.40;54.20;93941.34;5009899;28;20403;-86
2022/10/30 07:52:05;;;;;;;0.60;0.60;;;;;;;18.42;54.07;93944.31;4993998;28;20044;-86
2022/10/30 07:54:31;;;;;;;2.00;1.00;;;;;;;18.42;54.26;93941.56;5040608;28;20042;-86
2022/10/30 07:56:57;;;;;;;1.10;0.88;;;;;;;18.43;54.06;93949.28;5021529;28;20104;-86
2022/10/30 07:59:23;;;;;;;1.30;0.80;;;;;;;18.44;54.36;93939.06;5025448;28;20060;-87
2022/10/30 08:01:48;;;;;;;0.60;0.60;;;;;;;18.45;54.15;93940.56;4993301;28;20037;-86
2022/10/30 08:04:14;;;;;;;1.45;1.20;;;;;;;18.44;54.11;93937.09;5025354;28;20052;-86
2022/10/30 08:06:39;;;;;;;1.25;0.70;;;;;;;18.45;54.12;93937.84;5002891;28;20045;-86
2022/10/30 08:09:05;;;;;;;1.67;0.90;;;;;;;18.46;54.16;93939.31;5004829;28;20454;-86
2022/10/30 08:11:30;;;;;;;1.00;0.90;;;;;;;18.47;53.95;93935.34;5006161;28;20411;-87
2022/10/30 08:13:56;;;;;;;0.70;0.60;;;;;;;18.47;53.87;93938.84;5007755;28;20076;-86
2022/10/30 08:16:21;;;;;;;1.02;0.63;;;;;;;18.47;53.90;93936.09;5025614;28;20084;-86
2022/10/30 08:18:47;;;;;;;1.13;0.60;;;;;;;18.49;53.86;93938.34;5030354;28;20109;-86
2022/10/30 08:21:12;;;;;;;1.27;0.52;;;;;;;18.49;54.06;93943.81;5005887;28;20038;-86
2022/10/30 08:23:37;;;;;;;0.68;0.68;;;;;;;18.49;53.96;93943.81;5003916;28;20033;-85
2022/10/30 08:26:04;;;;;;;1.55;0.60;;;;;;;18.52;53.87;93944.81;5009019;28;20395;-86
2022/10/30 08:28:29;;;;;;;0.85;0.70;;;;;;;18.50;54.20;93948.03;5006133;28;20369;-86
2022/10/30 08:30:55;;;;;;;0.60;0.57;;;;;;;18.53;53.90;93946.31;4974566;28;20045;-86
2022/10/30 08:33:20;;;;;;;1.38;0.57;;;;;;;18.53;54.00;93951.78;4991810;28;20484;-86
2022/10/30 08:35:47;;;;;;;0.73;0.60;;;;;;;18.53;54.10;93949.78;5008232;28;20104;-86
2022/10/30 08:38:13;;;;;;;0.80;0.60;;;;;;;18.52;53.78;93945.56;4983426;28;20494;-87
2022/10/30 08:40:38;;;;;;;0.70;0.52;;;;;;;18.53;53.85;93949.03;4992494;28;20034;-86
2022/10/30 08:43:03;;;;;;;0.75;0.50;;;;;;;18.58;53.70;93948.31;5008378;28;20558;-86
2022/10/30 08:45:29;;;;;;;1.20;0.57;;;;;;;18.55;53.74;93946.56;4993026;28;20040;-86
2022/10/30 08:48:00;;;;;;;1.75;0.70;;;;;;;18.55;53.59;93941.81;5024179;28;20025;-86
2022/10/30 08:50:26;;;;;;;;;;;;;;;18.56;53.87;93946.06;5025688;28;20538;-86
2022/10/30 08:52:52;;;;;;;1.20;0.77;;;;;;;18.55;54.07;93941.06;5025699;28;19928;-85
2022/10/30 08:55:17;;;;;;;0.60;0.60;;;;;;;18.55;53.32;93941.06;5024207;28;20072;-86
2022/10/30 08:57:43;;;;;;;0.73;0.73;;;;;;;18.56;54.06;93939.84;4989309;28;20046;-86
2022/10/30 09:00:08;;;;;;;0.57;0.45;;;;;;;18.54;54.06;93945.81;5036075;28;20034;-86
2022/10/30 09:02:34;;;;;;;0.80;0.68;;;;;;;18.56;53.76;93928.88;5024992;28;20037;-86
2022/10/30 09:04:59;;;;;;;1.42;0.90;;;;;;;18.56;54.08;93939.84;4989351;28;20397;-85
2022/10/30 09:07:25;;;;;;;0.50;0.50;;;;;;;18.56;54.04;93937.09;5007486;28;20076;-86
2022/10/30 09:09:50;;;;;;;0.88;0.65;;;;;;;18.58;53.91;93942.81;5008551;28;20034;-86
2022/10/30 09:12:15;;;;;;;0.73;0.50;;;;;;;18.57;53.78;93933.13;4999797;28;20400;-86
2022/10/30 09:14:41;;;;;;;0.60;0.60;;;;;;;18.56;53.92;93937.84;4992675;28;20046;-86
2022/10/30 09:17:06;;;;;;;0.63;0.60;;;;;;;18.56;53.92;93934.34;4989429;28;20070;-86
2022/10/30 09:19:32;;;;;;;0.40;0.30;;;;;;;18.58;53.95;93932.63;4989672;28;20061;-86
2022/10/30 09:21:57;;;;;;;0.85;0.60;;;;;;;18.59;53.82;93923.19;4989565;28;20096;-85
2022/10/30 09:24:22;;;;;;;0.40;0.40;;;;;;;18.60;53.92;93937.63;5021479;28;20046;-86
2022/10/30 09:26:48;;;;;;;0.82;0.70;;;;;;;18.58;53.94;93926.41;4976332;28;20052;-86
2022/10/30 09:29:13;;;;;;;2.03;0.63;;;;;;;18.59;53.93;93928.66;5007905;28;20061;-86
2022/10/30 09:31:39;;;;;;;3.08;0.77;;;;;;;18.60;53.95;93934.88;5008873;28;20048;-85
2022/10/30 09:34:04;;;;;;;0.82;0.60;;;;;;;18.59;53.77;93934.13;4992547;28;20058;-86
2022/10/30 09:36:31;;;;;;;1.85;0.43;;;;;;;18.58;53.89;93932.63;4992238;28;20042;-86
2022/10/30 09:38:57;;;;;;;2.35;0.77;;;;;;;18.60;53.98;93929.41;5005238;28;20073;-86
2022/10/30 09:41:59;;;;;;;0.52;0.40;;;;;;;18.58;54.13;93929.13;5005108;28;20408;-86
2022/10/30 09:44:34;;;;;;;4.90;0.70;;;;;;;18.60;53.87;93929.41;5004403;28;20038;-86
2022/10/30 09:47:05;;;;;;;0.65;0.50;;;;;;;18.60;53.75;93921.94;4989913;28;20146;-87
2022/10/30 09:49:52;;;;;;;0.65;0.55;;;;;;;18.61;53.96;93928.16;5016796;28;20034;-86
2022/10/30 09:52:52;;;;;;;1.13;0.50;;;;;;;18.59;54.10;93933.38;5026038;28;20076;-86
2022/10/30 09:55:28;;;;;;;1.08;0.65;;;;;;;18.61;54.06;93926.19;5035736;28;20045;-86
2022/10/30 09:58:27;;;;;;;0.57;0.57;;;;;;;18.58;54.00;93927.13;5022614;28;20571;-86
2022/10/30 10:01:18;;;;;;;0.60;0.60;;;;;;;18.60;54.04;93934.88;4990652;28;20050;-85
2022/10/30 10:04:14;;;;;;;0.60;0.60;;;;;;;18.59;53.90;93925.16;5021381;28;20495;-86
2022/10/30 10:06:41;;;;;;;0.50;0.50;;;;;;;18.60;53.93;93929.41;5026265;28;20558;-86
2022/10/30 10:09:11;;;;;;;1.63;0.98;;;;;;;18.58;53.92;93916.19;5001517;28;20038;-86
2022/10/30 10:11:39;;;;;;;2.42;0.73;;;;;;;18.59;53.88;93928.66;4979929;28;20049;-86
2022/10/30 10:14:13;;;;;;;0.60;0.60;;;;;;;18.58;54.15;93927.13;4996876;28;20045;-86
2022/10/30 10:16:39;;;;;;;0.60;0.60;;;;;;;18.61;53.92;93922.69;5028625;28;20037;-86
2022/10/30 10:19:15;;;;;;;0.52;0.52;;;;;;;18.61;53.94;93928.91;5013567;28;20069;-86
2022/10/30 10:21:52;;;;;;;1.02;0.70;;;;;;;18.60;53.87;93923.94;5024603;28;20129;-86
2022/10/30 10:24:21;;;;;;;0.77;0.55;;;;;;;18.60;53.96;93921.19;5009275;28;20057;-86
2022/10/30 10:26:51;;;;;;;0.70;0.70;;;;;;;18.62;54.11;93926.91;4992103;28;20038;-86
2022/10/30 10:29:39;;;;;;;0.70;0.70;;;;;;;18.60;54.22;93918.47;4994273;28;20070;-86
2022/10/30 10:32:28;;;;;;;0.55;0.55;;;;;;;18.60;54.22;93911.00;5041851;28;20044;-85
2022/10/30 10:34:53;;;;;;;1.23;0.60;;;;;;;18.61;54.11;93923.44;5032911;28;20049;-86
2022/10/30 10:37:34;;;;;;;0.45;0.40;;;;;;;18.64;53.91;93913.44;5023737;28;20037;-86
2022/10/30 10:40:09;;;;;;;0.60;0.55;;;;;;;18.60;54.16;93913.72;5026203;28;20132;-86
2022/10/30 10:42:56;;;;;;;0.85;0.50;;;;;;;18.59;54.20;93914.19;5042907;28;20061;-86
2022/10/30 10:45:39;;;;;;;1.23;0.77;;;;;;;18.61;54.20;93914.47;5007386;28;20065;-86
2022/10/30 10:48:20;;;;;;;0.82;0.70;;;;;;;18.61;54.09;93914.47;5015696;28;20033;-85
2022/10/30 10:50:50;;;;;;;0.65;0.65;;;;;;;18.61;53.96;93903.53;5027608;28;20034;-86
2022/10/30 10:53:15;;;;;;;0.50;0.50;;;;;;;18.60;54.05;93908.25;5027319;28;20044;-86
2022/10/30 10:55:41;;;;;;;1.02;0.70;;;;;;;18.61;54.26;93904.28;5044000;28;20045;-86
2022/10/30 10:58:24;;;;;;;0.65;0.50;;;;;;;18.59;53.82;93895.03;4993938;28;20141;-85
2022/10/30 11:00:50;;;;;;;0.88;0.50;;;;;;;18.60;54.01;93897.31;5006366;28;20395;-86
2022/10/30 11:03:20;;;;;;;0.60;0.60;;;;;;;18.61;54.26;93895.31;4990529;28;20037;-87
2022/10/30 11:05:49;;;;;;;1.75;0.57;;;;;;;18.62;53.92;93899.53;4991085;28;20034;-86
2022/10/30 11:08:36;;;;;;;0.50;0.50;;;;;;;18.61;54.21;93900.78;5025985;28;20113;-85
2022/10/30 11:11:04;;;;;;;0.63;0.47;;;;;;;18.61;53.96;93898.03;5027498;28;20041;-86
2022/10/30 11:13:36;;;;;;;0.60;0.50;;;;;;;18.63;54.03;93892.78;5007671;28;20049;-86
2022/10/30 11:16:17;;;;;;;0.60;0.57;;;;;;;18.59;54.13;93895.81;4991951;28;20050;-85
2022/10/30 11:18:42;;;;;;;0.90;0.57;;;;;;;18.60;54.06;93896.56;5013434;28;20042;-86
2022/10/30 11:21:15;;;;;;;0.70;0.70;;;;;;;18.60;54.07;93902.78;4994520;28;20054;-85
2022/10/30 11:23:45;;;;;;;1.13;0.70;;;;;;;18.61;54.41;93898.78;5010507;28;20088;-86
2022/10/30 11:26:25;;;;;;;0.57;0.50;;;;;;;18.60;54.32;93899.28;5026440;28;20040;-86
2022/10/30 11:28:58;;;;;;;0.45;0.40;;;;;;;18.60;54.22;93893.81;5026733;28;20037;-86
2022/10/30 11:31:34;;;;;;;0.63;0.50;;;;;;;18.60;54.16;93896.56;5025868;28;20041;-86
2022/10/30 11:34:12;;;;;;;1.60;0.70;;;;;;;18.60;54.46;93894.56;5026651;28;20037;-86
2022/10/30 11:36:37;;;;;;;0.50;0.47;;;;;;;18.62;54.38;93894.78;5035492;28;20061;-85
2022/10/30 11:39:14;;;;;;;0.82;0.52;;;;;;;18.60;54.21;93889.09;4994526;28;20053;-85